Flight Track Log - Related Links

Times and Time Zones

All times are in EDT time to prevent confusion due to time zone crossing. See the SWA3585 flight status page for this flight to view local times or setup timezone preferences in your user account.

Time Position Orientation Groundspeed Altitude Reporting Facility
EDT Latitude Longitude Course Direction KTS MPH feet Rate Location/Type
Mon 07:27:52 AM 35.4078 -97.6214 North 143 165 2,000  Level Fort Worth Center
Mon 07:28:23 AM 35.4247 -97.6211 North 162 186 3,200 1,906 Climbing Fort Worth Center
Mon 07:29:17 AM 35.4642 -97.5808 40° Northeast 248 285 4,700 2,367 Climbing Fort Worth Center
Mon 07:30:12 AM 35.5008 -97.4997 61° Northeast 289 333 7,500 3,134 Climbing Fort Worth Center
Mon 07:30:24 AM 35.5081 -97.4858 57° Northeast 320 368 8,200 3,541 Climbing Fort Worth Center
Mon 07:31:13 AM 35.5433 -97.4008 63° Northeast 314 361 11,100 3,218 Climbing Fort Worth Center
Mon 07:32:14 AM 35.5886 -97.2875 64° Northeast 363 418 14,100 3,148 Climbing Fort Worth Center
Mon 07:33:15 AM 35.6375 -97.1678 63° Northeast 386 444 17,500 3,372 Climbing Fort Worth Center
Mon 07:34:15 AM 35.6883 -97.0442 63° Northeast 401 461 20,900 3,074 Climbing Fort Worth Center
Mon 07:35:16 AM 35.7411 -96.9175 63° Northeast 412 474 23,700 2,410 Climbing Fort Worth Center
Mon 07:36:17 AM 35.7947 -96.7878 63° Northeast 426 490 25,800 1,869 Climbing Fort Worth Center
Mon 07:37:18 AM 35.8511 -96.6489 63° Northeast 449 517 27,500 1,721 Climbing Fort Worth Center
Mon 07:38:19 AM 35.9111 -96.5042 63° Northeast 474 545 29,300 1,672 Climbing Fort Worth Center
Mon 07:39:20 AM 35.9703 -96.3600 63° Northeast 481 554 30,900 1,388 Climbing Fort Worth Center
Mon 07:40:20 AM 36.0325 -96.2050 64° Northeast 502 578 32,100 1,587 Climbing Fort Worth Center
Mon 07:41:21 AM 36.0950 -96.0486 64° Northeast 509 586 34,100 1,721 Climbing Fort Worth Center
Mon 07:42:22 AM 36.1561 -95.8936 64° Northeast 504 580 35,600 1,623 Climbing Fort Worth Center
Mon 07:43:23 AM 36.2194 -95.7417 63° Northeast 500 575 37,400 1,525 Climbing Fort Worth Center
Mon 07:44:24 AM 36.2872 -95.6025 59° Northeast 478 550 38,700 787 Climbing Fort Worth Center
Mon 07:45:25 AM 36.3567 -95.4594 59° Northeast 477 549 39,000 148 Climbing Fort Worth Center
Mon 07:46:26 AM 36.4283 -95.3183 58° Northeast 480 552 39,000  Level Fort Worth Center
Mon 07:47:27 AM 36.5000 -95.1575 61° Northeast 483 556 39,000  Level Fort Worth Center
Mon 07:48:27 AM 36.5689 -95.0117 60° Northeast 485 558 39,000  Level Fort Worth Center
Mon 07:49:28 AM 36.6375 -94.8656 60° Northeast 486 559 39,000  Level Fort Worth Center
Mon 07:50:29 AM 36.7097 -94.7222 58° Northeast 487 560 39,000  Level Fort Worth Center
Mon 07:51:51 AM 36.8567 -94.5567 42° Northeast 500 575 39,000  Level Kansas City Center
Mon 07:52:52 AM 36.9597 -94.4381 43° Northeast 500 575 39,000  Level Kansas City Center
Mon 07:53:53 AM 37.0642 -94.3211 42° Northeast 501 577 39,000  Level Kansas City Center
Mon 07:54:54 AM 37.1692 -94.2031 42° Northeast 504 580 39,000  Level Kansas City Center
Mon 07:55:55 AM 37.2806 -94.0722 43° Northeast 505 581 39,000  Level Kansas City Center
Mon 07:56:56 AM 37.3864 -93.9533 42° Northeast 506 582 39,000  Level Kansas City Center
Mon 07:57:57 AM 37.4922 -93.8319 42° Northeast 508 585 39,000  Level Kansas City Center
Mon 07:58:59 AM 37.5978 -93.7100 42° Northeast 509 586 39,000  Level Kansas City Center
Mon 08:00:00 AM 37.7022 -93.5889 43° Northeast 509 586 39,000  Level Kansas City Center
Mon 08:01:01 AM 37.8044 -93.4703 42° Northeast 501 577 39,000  Level Kansas City Center
Mon 08:02:02 AM 37.9067 -93.3503 43° Northeast 501 577 39,000  Level Kansas City Center
Mon 08:03:03 AM 38.0094 -93.2300 43° Northeast 501 577 39,000  Level Kansas City Center
Mon 08:04:04 AM 38.1114 -93.1100 43° Northeast 499 574 39,000  Level Kansas City Center
Mon 08:05:05 AM 38.2156 -92.9878 43° Northeast 500 575 39,000  Level Kansas City Center
Mon 08:06:06 AM 38.3175 -92.8672 43° Northeast 499 574 39,000  Level Kansas City Center
Mon 08:07:08 AM 38.4186 -92.7456 43° Northeast 498 573 39,000  Level Kansas City Center
Mon 08:08:09 AM 38.5214 -92.6233 43° Northeast 497 572 39,000  Level Kansas City Center
Mon 08:09:10 AM 38.6258 -92.4989 43° Northeast 503 579 39,000  Level Kansas City Center
Mon 08:10:11 AM 38.7494 -92.3461 44° Northeast 507 583 39,000  Level Kansas City Center
Mon 08:11:12 AM 38.8533 -92.2197 43° Northeast 508 585 39,000  Level Kansas City Center
Mon 08:12:13 AM 38.9586 -92.0917 43° Northeast 515 593 39,000  Level Kansas City Center
Mon 08:13:15 AM 39.0628 -91.9636 44° Northeast 515 593 39,000  Level Kansas City Center
Mon 08:14:16 AM 39.1675 -91.8353 44° Northeast 515 593 39,000 -197 Level Kansas City Center
Mon 08:15:17 AM 39.2708 -91.7094 43° Northeast 515 593 38,600 -689 Descending Kansas City Center
Mon 08:16:18 AM 39.3700 -91.5886 43° Northeast 516 594 37,600 -927 Descending Kansas City Center
Mon 08:17:20 AM 39.4681 -91.4644 44° Northeast 504 580 36,700 -927 Descending Kansas City Center
Mon 08:18:21 AM 39.5667 -91.3417 44° Northeast 494 568 35,700 -934 Descending Kansas City Center
Mon 08:19:22 AM 39.6644 -91.2178 44° Northeast 494 568 34,800 -1,033 Descending Kansas City Center
Mon 08:20:23 AM 39.7831 -91.0706 44° Northeast 494 568 33,600 -976 Descending Kansas City Center
Mon 08:21:25 AM 39.8706 -90.9586 44° Northeast 486 559 32,800 -878 Descending Kansas City Center
Mon 08:22:26 AM 39.9675 -90.8356 44° Northeast 485 558 31,800 -885 Descending Kansas City Center
Mon 08:23:27 AM 40.0664 -90.7117 44° Northeast 488 562 31,000 -393 Descending Kansas City Center
Mon 08:24:28 AM 40.1708 -90.5950 40° Northeast 492 566 31,000  Level Kansas City Center
Mon 08:25:29 AM 40.2739 -90.4764 41° Northeast 492 566 31,000 -114 Level Kansas City Center
Mon 08:26:13 AM 40.3367 -90.3661 53° Northeast 479 551 30,800 -736 Descending Chicago Center
Mon 08:27:15 AM 40.4033 -90.2272 58° Northeast 456 525 29,700 -1,016 Descending Chicago Center
Mon 08:28:17 AM 40.4722 -90.0847 58° Northeast 447 514 28,700 -968 Descending Chicago Center
Mon 08:29:19 AM 40.5394 -89.9486 57° Northeast 447 514 27,700 -1,113 Descending Chicago Center
Mon 08:30:21 AM 40.6022 -89.8189 57° Northeast 425 489 26,400 -1,645 Descending Chicago Center
Mon 08:31:23 AM 40.6761 -89.6694 57° Northeast 406 467 24,300 -1,887 Descending Chicago Center
Mon 08:32:25 AM 40.7347 -89.5478 58° Northeast 399 459 22,500 -1,597 Descending Chicago Center
Mon 08:33:27 AM 40.7975 -89.4172 58° Northeast 393 452 21,000 -1,210 Descending Chicago Center
Mon 08:34:29 AM 40.8517 -89.3042 58° Northeast 369 425 20,000 -968 Descending Chicago Center
Mon 08:35:31 AM 40.9047 -89.1942 57° Northeast 361 415 19,000 -2,049 Descending Chicago Center
Mon 08:36:32 AM 40.9583 -89.0803 58° Northeast 364 419 15,800 -2,488 Descending Chicago Center
Mon 08:37:34 AM 41.0203 -88.9489 58° Northeast 376 433 13,900 -1,694 Descending Chicago Center
Mon 08:38:36 AM 41.0758 -88.8283 59° Northeast 365 420 12,300 -1,597 Descending Chicago Center
Mon 08:39:38 AM 41.1256 -88.7233 58° Northeast 338 389 10,600 -1,500 Descending Chicago Center
Mon 08:40:40 AM 41.1742 -88.6183 58° Northeast 334 384 9,200 -726 Descending Chicago Center
Mon 08:41:42 AM 41.2192 -88.5236 58° Northeast 273 314 9,100 -290 Descending Chicago Center
Mon 08:42:44 AM 41.2397 -88.4406 72° East 246 283 8,600 -823 Descending Chicago Center
Mon 08:43:46 AM 41.1836 -88.4189 164° South 224 258 7,400 -1,258 Descending Chicago Center
Mon 08:44:48 AM 41.1739 -88.4953 260° West 241 277 6,000 -774 Descending Chicago Center
Mon 08:45:50 AM 41.2419 -88.5108 350° North 258 297 5,800  Descending Chicago Center
Mon 08:46:52 AM 41.3197 -88.5097 North 258 297 6,000 97 Climbing Chicago Center
Mon 08:47:54 AM 41.3869 -88.4867 14° North 260 299 6,000  Level Chicago Center
Mon 08:48:56 AM 41.4286 -88.4175 51° Northeast 243 280 6,000  Level Chicago Center
Mon 08:49:58 AM 41.4739 -88.3425 51° Northeast 242 278 6,000 -488 Level Chicago Center
Mon 08:50:59 AM 41.4878 -88.2611 77° East 225 259 5,000 -488 Descending Chicago Center
Mon 08:52:01 AM 41.4981 -88.1758 81° East 218 251 5,000  Level Chicago Center
Mon 08:53:03 AM 41.5094 -88.1150 76° East 171 197 5,000 -194 Level Chicago Center
Mon 08:54:05 AM 41.5392 -88.0589 55° Northeast 185 213 4,600 -435 Descending Chicago Center
Mon 08:55:07 AM 41.5800 -88.0094 42° Northeast 186 214 4,100 -484 Descending Chicago Center
Mon 08:56:09 AM 41.6117 -87.9689 44° Northeast 161 185 3,600 -484 Descending Chicago Center
Mon 08:57:11 AM 41.6481 -87.9242 43° Northeast 163 188 3,100 -290 Descending Chicago Center
Mon 08:58:13 AM 41.6819 -87.8803 44° Northeast 167 192 3,000 -339 Descending Chicago Center
Mon 08:59:15 AM 41.7150 -87.8383 43° Northeast 166 191 2,400 -677 Descending Chicago Center
Mon 09:00:17 AM 41.7428 -87.8036 43° Northeast 127 146 1,600 -726 Descending Chicago Center
Mon 09:01:19 AM 41.7694 -87.7711 42° Northeast 127 146 900 -484 Descending Chicago Center
Mon 09:02:21 AM 41.7936 -87.7419 42° Northeast 127 146 600 -290 Descending Chicago Center

Login

Don't have an account? Register now (free) for customized features, flight alerts, and more!